Hlavní strana
METAR-TAF:

METAR-TAF

Letiště :

South Alabama Regional Airport

Andalusia, Alabama, Spojené státy americké

zeměpisná šířka: 31-18-00N, zeměpisná délka: 086-23-00W, výška: 94 m

Aktuální stav počasí

Zpráva byla vytvořena před 15 minutami, v 18:06 UTC
Severoseverozápadní vítr 10 kt
Teplota 11°C
Vlhkost vzduchu 82%
Tlak 1019 hPa
Viditelnost: 2.8 km
Zataženo ve výšce 800 ft
slabý déšť

METAR: K79J 151806Z AUTO 33010KT 1 3/4SM -RA OVC008 11/08 A3010 RMK AO2 CIG 005V010 P0000 T01060078 $

Čas: 12:21 (18:21 UTC)


TAF: chybějící

Stav a předpovědi počasí z více než 4 000 letišť (zprávy METAR a TAF).

Červené a žluté tečky na mapě představují dostupné meteorologické stanice.

Když kurzor umístíte na tečku, zobrazí se název stanice.

Pak kliknutím zobrazíte stav a předpověď počasí.

Chcete-li změnit mapu, kliknutím na zelené tlačítko se znaménkem +mapu přiblížíte, kliknutím na zelené tlačítko se znaménkem – mapu oddálíte a kliknutím na zelené šipky přejdete na sousední mapy.


METAR-TAF: